Bicknell, Indiana
Current Conditions -  °F | °C
As of 9:35 PM on Saturday 25 Oct 2014 (Local Time) from KDCY Reporting Station
Clear Clear  
Wind Chill: 63°   Ceiling: Unl
Heat Index: 63°   Visibility: 10mi
Dew Point: 53°   Wind: 9mph
Humidity: 69%   Direction: 260°W
Pressure: 29.98"   Gusts: NA
Location:  38.77°N, 87.31°W
Report Text: KDCY 260235Z AUTO 26008KT 10SM CLR 17/12 A2998 RMK AO2 T01740116
Loading
Personal Weather Stations






























Interactive Weather Map New forecast layout! Learn more

10-Day Weather Forecast

Advertisements
Track Severe Weather on mobile